« Back
NWS Peachtree City, Ga » Text Product » MCN Terminal Aerodrome Forecast


Printer-friendly Version
Current Version              Previous Versions:   1  2  3  4  5  6  7  8  9  

Terminal Aerodrome Forecast

478
FTUS42 KFFC 160500
TAFMCN
TAF
KMCN 160533Z 1606/1706 16003KT 5SM BR BKN015
     FM160900 22003KT 4SM BR BKN007
     FM161400 27005KT P6SM VCSH BKN015
     FM161600 32007KT P6SM VCSH SCT025 BKN040
      TEMPO 1616/1620 5SM -TSRA BR BKN025CB
     FM162100 33009KT P6SM SCT050 BKN100
     FM170200 34005KT P6SM SCT120 BKN250=

USA.gov is the U.S. government's official web portal to all federal, state and local government web resources and services.